createdAt,value
2018-05-04T00:01:01.660Z,96.00
2018-05-04T00:05:04.938Z,96.40
2018-05-04T00:09:07.470Z,96.40
2018-05-04T00:13:09.987Z,96.50
2018-05-04T00:17:13.295Z,96.60
2018-05-04T00:21:15.850Z,96.60
2018-05-04T00:25:18.451Z,96.90
2018-05-04T00:29:21.746Z,97.90
2018-05-04T00:33:25.347Z,98.10
2018-05-04T00:37:27.863Z,98.10
2018-05-04T00:41:30.463Z,97.30
2018-05-04T00:45:32.991Z,97.40
2018-05-04T00:49:35.637Z,97.60
2018-05-04T00:53:50.096Z,97.90
2018-05-04T00:57:59.403Z,97.90
2018-05-04T01:02:01.910Z,97.90
2018-05-04T01:06:04.452Z,98.20
2018-05-04T01:10:07.734Z,98.90
2018-05-04T01:14:10.278Z,98.90
2018-05-04T01:18:13.594Z,98.40
2018-05-04T01:22:16.263Z,98.40
2018-05-04T01:26:30.558Z,98.60
2018-05-04T01:30:33.399Z,98.50
2018-05-04T01:34:35.927Z,98.10
2018-05-04T01:38:44.731Z,98.40
2018-05-04T01:42:47.244Z,98.30
2018-05-04T01:46:49.786Z,99.00
2018-05-04T01:50:53.064Z,98.70
2018-05-04T01:54:55.624Z,98.70
2018-05-04T01:58:58.143Z,98.90
2018-05-04T02:03:00.695Z,99.10
2018-05-04T02:07:04.224Z,99.70
2018-05-04T02:11:06.783Z,99.00
2018-05-04T02:15:09.295Z,98.80
2018-05-04T02:19:11.842Z,99.00
2018-05-04T02:23:15.334Z,99.20
2018-05-04T02:27:17.874Z,99.10
2018-05-04T02:31:20.386Z,99.40
2018-05-04T02:35:22.966Z,99.50
2018-05-04T02:39:26.478Z,99.60
2018-05-04T02:43:29.166Z,99.60
2018-05-04T02:47:31.684Z,99.60
2018-05-04T02:51:34.247Z,99.80
2018-05-04T02:55:37.723Z,99.30
2018-05-04T02:59:40.262Z,99.50
2018-05-04T03:03:42.770Z,99.70
2018-05-04T03:07:45.312Z,99.90
2018-05-04T03:11:47.826Z,99.90
2018-05-04T03:15:51.237Z,99.90
2018-05-04T03:19:54.542Z,99.90
2018-05-04T03:23:57.088Z,99.90
2018-05-04T03:27:59.595Z,99.90
2018-05-04T03:32:02.517Z,99.90
2018-05-04T03:36:05.030Z,99.90
2018-05-04T03:40:07.566Z,99.90
2018-05-04T03:44:10.081Z,99.90
2018-05-04T03:48:12.628Z,99.90
2018-05-04T03:52:15.255Z,99.90
2018-05-04T03:56:18.233Z,99.90
2018-05-04T04:00:32.687Z,99.90
2018-05-04T04:04:35.240Z,99.90
2018-05-04T04:08:37.771Z,99.90
2018-05-04T04:12:40.715Z,99.90
2018-05-04T04:16:43.180Z,99.90
2018-05-04T04:20:45.725Z,99.90
2018-05-04T04:24:48.236Z,99.90
2018-05-04T04:28:51.136Z,99.90
2018-05-04T04:32:53.650Z,99.90
2018-05-04T04:36:56.283Z,99.90
2018-05-04T04:40:58.815Z,99.90
2018-05-04T04:45:01.356Z,99.90
2018-05-04T04:49:03.888Z,99.90
2018-05-04T04:53:06.444Z,99.90
2018-05-04T04:57:08.980Z,99.90
2018-05-04T05:01:11.539Z,99.90
2018-05-04T05:05:14.090Z,99.90
2018-05-04T05:09:16.632Z,99.90
2018-05-04T05:13:19.156Z,99.90
2018-05-04T05:17:21.723Z,99.90
2018-05-04T05:21:24.995Z,99.90
2018-05-04T05:25:27.541Z,99.90
2018-05-04T05:29:30.107Z,99.90
2018-05-04T05:33:33.491Z,99.90
2018-05-04T05:37:36.014Z,99.90
2018-05-04T05:41:38.660Z,99.90
2018-05-04T05:45:41.178Z,99.90
2018-05-04T05:49:43.723Z,99.90
2018-05-04T05:53:46.235Z,99.90
2018-05-04T05:57:48.883Z,99.90
2018-05-04T06:01:51.403Z,99.90
2018-05-04T06:05:53.929Z,99.90
2018-05-04T06:09:57.202Z,99.90
2018-05-04T06:13:59.846Z,99.90
2018-05-04T06:18:02.352Z,99.20
2018-05-04T06:22:04.894Z,99.10
2018-05-04T06:26:08.351Z,99.00
2018-05-04T06:30:10.988Z,98.30
2018-05-04T06:34:13.518Z,98.70
2018-05-04T06:38:16.840Z,98.00
2018-05-04T06:42:20.129Z,97.20
2018-05-04T06:46:22.815Z,97.10
2018-05-04T06:50:25.343Z,93.10
2018-05-04T06:54:27.896Z,92.90
2018-05-04T06:58:31.348Z,93.30
2018-05-04T07:02:36.951Z,91.40
2018-05-04T07:06:39.465Z,83.00
2018-05-04T07:10:42.099Z,67.60
2018-05-04T07:14:45.375Z,52.00
2018-05-04T07:18:48.009Z,51.90
2018-05-04T07:22:51.297Z,48.00
2018-05-04T07:26:53.843Z,47.90
2018-05-04T07:30:56.365Z,47.80
2018-05-04T07:34:59.690Z,42.70
2018-05-04T07:39:02.970Z,41.50
2018-05-04T07:43:05.527Z,41.40
2018-05-04T07:47:08.140Z,40.90
2018-05-04T07:51:10.696Z,41.40
2018-05-04T07:55:13.301Z,38.30
2018-05-04T07:59:16.543Z,38.60
2018-05-04T08:03:19.824Z,39.60
2018-05-04T08:07:24.311Z,39.50
2018-05-04T08:11:26.849Z,37.70
2018-05-04T08:15:29.607Z,37.30
2018-05-04T08:19:32.115Z,39.30
2018-05-04T08:23:35.659Z,37.30
2018-05-04T08:27:38.172Z,36.00
2018-05-04T08:31:41.510Z,37.40
2018-05-04T08:35:44.803Z,37.30
2018-05-04T08:39:47.339Z,37.30
2018-05-04T08:43:49.883Z,41.20
2018-05-04T08:47:52.482Z,39.90
2018-05-04T08:51:55.008Z,37.50
2018-05-04T08:55:57.644Z,38.50
2018-05-04T09:00:00.191Z,38.30
2018-05-04T09:04:21.521Z,40.40
2018-05-04T09:08:31.104Z,38.90
2018-05-04T09:12:33.665Z,38.90
2018-05-04T09:16:36.182Z,40.50
2018-05-04T09:20:38.732Z,40.90
2018-05-04T09:24:41.258Z,40.60
2018-05-04T09:28:43.794Z,41.20
2018-05-04T09:32:46.374Z,45.40
2018-05-04T09:36:48.874Z,41.00
2018-05-04T09:40:51.399Z,42.00
2018-05-04T09:44:54.039Z,42.10
2018-05-04T09:48:57.464Z,42.00
2018-05-04T09:52:59.987Z,42.00
2018-05-04T09:57:02.506Z,40.50
2018-05-04T10:01:05.926Z,43.50
2018-05-04T10:05:08.500Z,43.40
2018-05-04T10:09:11.958Z,44.70
2018-05-04T10:13:14.486Z,44.60
2018-05-04T10:17:20.079Z,43.80
2018-05-04T10:21:28.123Z,44.10
2018-05-04T10:25:30.796Z,45.90
2018-05-04T10:29:33.315Z,45.90
2018-05-04T10:33:36.854Z,48.00
2018-05-04T10:37:39.379Z,46.20
2018-05-04T10:41:42.992Z,47.50
2018-05-04T10:45:48.454Z,48.70
2018-05-04T10:49:57.494Z,47.40
2018-05-04T10:54:00.935Z,48.00
2018-05-04T10:58:07.150Z,49.60
2018-05-04T11:02:09.668Z,50.40
2018-05-04T11:06:12.334Z,48.80
2018-05-04T11:10:14.856Z,48.80
2018-05-04T11:14:18.335Z,51.40
2018-05-04T11:18:20.867Z,49.80
2018-05-04T11:22:23.447Z,50.30
2018-05-04T11:26:25.968Z,51.50
2018-05-04T11:30:29.276Z,56.00
2018-05-04T11:34:31.819Z,55.90
2018-05-04T11:38:34.541Z,52.50
2018-05-04T11:42:38.092Z,53.10
2018-05-04T11:46:45.201Z,50.60
2018-05-04T11:50:47.723Z,50.90
2018-05-04T11:54:57.876Z,51.30
2018-05-04T11:59:04.250Z,51.30
2018-05-04T12:03:08.689Z,52.80
2018-05-04T12:07:14.327Z,52.80
2018-05-04T12:11:17.630Z,55.00
2018-05-04T12:15:20.144Z,54.80
2018-05-04T12:19:22.701Z,52.20
2018-05-04T12:23:25.224Z,52.80
2018-05-04T12:27:27.863Z,52.10
2018-05-04T12:31:30.370Z,53.20
2018-05-04T12:35:33.781Z,55.70
2018-05-04T12:39:42.708Z,55.60
2018-05-04T12:43:51.581Z,53.40
2018-05-04T12:47:54.100Z,55.30
2018-05-04T12:51:56.647Z,54.60
2018-05-04T12:55:59.154Z,55.40
2018-05-04T13:00:02.645Z,56.90
2018-05-04T13:04:05.168Z,56.20
2018-05-04T13:08:09.058Z,57.30
2018-05-04T13:12:11.583Z,57.20
2018-05-04T13:16:33.072Z,62.40
2018-05-04T13:20:35.611Z,59.00
2018-05-04T13:24:38.571Z,60.40
2018-05-04T13:28:49.720Z,58.30
2018-05-04T13:32:52.277Z,61.30
2018-05-04T13:36:54.812Z,59.70
2018-05-04T13:41:00.059Z,58.50
2018-05-04T13:45:03.352Z,59.10
2018-05-04T13:49:11.814Z,58.90
2018-05-04T13:53:16.375Z,65.50
2018-05-04T13:57:18.918Z,62.10
2018-05-04T14:01:22.390Z,64.90
2018-05-04T14:05:25.269Z,60.20
2018-05-04T14:09:27.787Z,63.30
2018-05-04T14:13:34.631Z,60.70
2018-05-04T14:17:37.138Z,63.20
2018-05-04T14:21:39.708Z,57.80
2018-05-04T14:25:43.238Z,61.70
2018-05-04T14:29:45.834Z,60.60
2018-05-04T14:33:48.343Z,65.40
2018-05-04T14:37:54.171Z,63.10
2018-05-04T14:41:57.655Z,58.70
2018-05-04T14:46:00.210Z,58.90
2018-05-04T14:50:02.721Z,58.70
2018-05-04T14:54:06.234Z,60.70
2018-05-04T14:58:08.750Z,61.40
2018-05-04T15:02:12.055Z,61.00
2018-05-04T15:06:14.579Z,60.90
2018-05-04T15:10:18.005Z,58.00
2018-05-04T15:14:21.294Z,57.90
2018-05-04T15:18:23.866Z,57.80
2018-05-04T15:22:26.382Z,59.30
2018-05-04T15:26:29.938Z,58.80
2018-05-04T15:30:32.459Z,59.20
2018-05-04T15:34:35.002Z,60.20
2018-05-04T15:38:39.602Z,59.10
2018-05-04T15:42:42.175Z,58.70
2018-05-04T15:46:44.700Z,57.10
2018-05-04T15:50:54.843Z,56.20
2018-05-04T15:54:57.398Z,56.80
2018-05-04T15:59:00.014Z,58.40
2018-05-04T16:03:02.545Z,62.50
2018-05-04T16:07:05.870Z,62.40
2018-05-04T16:11:08.403Z,62.40
2018-05-04T16:15:10.962Z,60.40
2018-05-04T16:19:13.474Z,59.90
2018-05-04T16:23:16.015Z,60.20
2018-05-04T16:27:18.535Z,60.40
2018-05-04T16:31:21.072Z,61.70
2018-05-04T16:35:23.654Z,62.00
2018-05-04T16:39:26.240Z,62.60
2018-05-04T16:43:28.779Z,63.90
2018-05-04T16:47:31.344Z,63.60
2018-05-04T16:51:33.860Z,64.50
2018-05-04T16:55:36.463Z,64.20
2018-05-04T16:59:38.974Z,65.50
2018-05-04T17:03:41.540Z,64.10
2018-05-04T17:07:45.845Z,69.40
2018-05-04T17:11:48.445Z,69.20
2018-05-04T17:15:51.033Z,66.50
2018-05-04T17:19:53.625Z,66.80
2018-05-04T17:23:56.192Z,68.90
2018-05-04T17:27:58.844Z,67.50
2018-05-04T17:32:01.362Z,68.10
2018-05-04T17:36:03.956Z,69.70
2018-05-04T17:40:08.559Z,69.50
2018-05-04T17:44:11.875Z,70.20
2018-05-04T17:48:14.419Z,70.20
2018-05-04T17:52:19.203Z,70.40
2018-05-04T17:56:21.750Z,70.30
2018-05-04T18:00:24.318Z,69.80
2018-05-04T18:04:26.859Z,70.60
2018-05-04T18:08:29.459Z,71.40
2018-05-04T18:12:35.063Z,69.40
2018-05-04T18:16:37.667Z,69.90
2018-05-04T18:20:40.271Z,71.50
2018-05-04T18:24:42.951Z,70.80
2018-05-04T18:28:45.570Z,71.40
2018-05-04T18:32:52.607Z,71.10
2018-05-04T18:36:59.137Z,71.50
2018-05-04T18:41:02.127Z,70.60
2018-05-04T18:45:05.524Z,72.20
2018-05-04T18:49:08.848Z,72.10
2018-05-04T18:53:12.180Z,72.00
2018-05-04T18:57:15.802Z,72.80
2018-05-04T19:01:19.298Z,72.80
2018-05-04T19:05:22.906Z,72.70
2018-05-04T19:09:26.222Z,73.90
2018-05-04T19:13:29.819Z,73.80
2018-05-04T19:17:36.703Z,74.30
2018-05-04T19:21:39.351Z,74.70
2018-05-04T19:25:48.330Z,76.90
2018-05-04T19:29:50.958Z,77.80
2018-05-04T19:33:53.482Z,77.20
2018-05-04T19:37:56.060Z,78.40
2018-05-04T19:42:00.579Z,78.70
2018-05-04T19:46:09.588Z,80.90
2018-05-04T19:50:20.682Z,82.10
2018-05-04T19:54:24.571Z,83.10
2018-05-04T19:58:33.699Z,83.20
2018-05-04T20:02:41.349Z,82.80
2018-05-04T20:06:44.867Z,83.60
2018-05-04T20:10:48.413Z,84.60
2018-05-04T20:14:50.922Z,86.40
2018-05-04T20:18:54.501Z,88.30
2018-05-04T20:23:03.137Z,89.80
2018-05-04T20:27:05.695Z,89.50
2018-05-04T20:31:08.203Z,90.80
2018-05-04T20:35:10.758Z,91.10
2018-05-04T20:39:13.282Z,90.70
2018-05-04T20:43:15.827Z,91.00
2018-05-04T20:47:18.335Z,90.90
2018-05-04T20:51:20.885Z,90.10
2018-05-04T20:55:23.398Z,89.00
2018-05-04T20:59:26.031Z,87.30
2018-05-04T21:03:28.559Z,87.00
2018-05-04T21:07:31.194Z,87.40
2018-05-04T21:11:34.606Z,86.70
2018-05-04T21:15:38.042Z,86.90
2018-05-04T21:19:40.563Z,86.70
2018-05-04T21:23:44.042Z,86.80
2018-05-04T21:27:46.563Z,86.90
2018-05-04T21:31:49.198Z,86.80
2018-05-04T21:35:51.724Z,87.30
2018-05-04T21:39:54.287Z,87.20
2018-05-04T21:43:57.591Z,87.70
2018-05-04T21:48:00.219Z,87.70
2018-05-04T21:52:03.506Z,87.70
2018-05-04T21:56:06.067Z,87.70
2018-05-04T22:00:08.594Z,87.90
2018-05-04T22:04:11.156Z,87.50
2018-05-04T22:08:14.439Z,88.00
2018-05-04T22:12:17.091Z,88.00
2018-05-04T22:16:20.385Z,88.40
2018-05-04T22:20:22.931Z,88.30
2018-05-04T22:24:32.205Z,88.90
2018-05-04T22:28:35.198Z,88.90
2018-05-04T22:32:42.567Z,89.50
2018-05-04T22:36:45.246Z,89.50
2018-05-04T22:40:47.764Z,89.60
2018-05-04T22:44:50.421Z,90.00
2018-05-04T22:48:52.939Z,90.00
2018-05-04T22:52:56.254Z,90.40
2018-05-04T22:56:58.786Z,90.30
2018-05-04T23:01:01.456Z,90.40
2018-05-04T23:05:20.761Z,90.30
2018-05-04T23:09:24.303Z,90.40
2018-05-04T23:13:27.614Z,91.10
2018-05-04T23:17:30.167Z,91.10
2018-05-04T23:21:32.727Z,91.50
2018-05-04T23:25:39.238Z,91.90
2018-05-04T23:29:41.778Z,92.10
2018-05-04T23:33:48.542Z,91.90
2018-05-04T23:37:54.603Z,91.30
2018-05-04T23:41:57.154Z,91.20
2018-05-04T23:46:04.778Z,91.10
2018-05-04T23:50:08.111Z,91.10
2018-05-04T23:54:15.972Z,91.20
2018-05-04T23:58:18.619Z,91.20
